Time;durP1;ratioP1;P1;durP2;ratioP2;P2;SDS_P1;SDS_P2;PMS_P1;PMS_P2;Temp;Humidity;BMP_temperature;BMP_pressure;BME280_temperature;BME280_humidity;BME280_pressure;Samples;Min_cycle;Max_cycle;Signal;HPM_P1;HPM_P2
2022/07/17 00:00:49;;;;;;;11.80;8.37;;;16.50;60.00;;;;;;5075119;28;20513;-65
2022/07/17 00:03:17;;;;;;;20.13;13.23;;;16.40;60.80;;;;;;5065459;28;20464;-66
2022/07/17 00:05:45;;;;;;;19.47;13.20;;;16.30;61.70;;;;;;5061010;28;20497;-65
2022/07/17 00:08:13;;;;;;;18.30;12.63;;;16.40;60.70;;;;;;5074900;28;20501;-65
2022/07/17 00:10:42;;;;;;;12.63;8.20;;;16.40;60.80;;;;;;5069159;28;20445;-65
2022/07/17 00:13:10;;;;;;;11.83;6.47;;;16.30;60.90;;;;;;5054641;28;20437;-66
2022/07/17 00:15:38;;;;;;;8.70;5.67;;;16.30;61.10;;;;;;5059351;28;20479;-66
2022/07/17 00:18:07;;;;;;;6.00;4.83;;;16.30;61.10;;;;;;5074541;28;20773;-65
2022/07/17 00:20:35;;;;;;;5.87;5.00;;;16.20;61.60;;;;;;5070106;28;20487;-65
2022/07/17 00:23:02;;;;;;;5.87;4.00;;;16.20;62.40;;;;;;5054524;28;20437;-65
2022/07/17 00:25:32;;;;;;;5.40;4.50;;;16.10;62.60;;;;;;5057559;28;20454;-66
2022/07/17 00:27:59;;;;;;;4.80;4.10;;;16.10;62.70;;;;;;5074821;28;20797;-65
2022/07/17 00:30:26;;;;;;;5.50;4.57;;;16.10;63.10;;;;;;5071543;28;20451;-65
2022/07/17 00:32:55;;;;;;;5.17;4.63;;;16.10;63.10;;;;;;5054620;28;20437;-71
2022/07/17 00:35:22;;;;;;;4.57;4.07;;;16.00;63.50;;;;;;5056100;28;20539;-65
2022/07/17 00:37:50;;;;;;;6.63;5.20;;;15.80;64.30;;;;;;5074282;28;20497;-65
2022/07/17 00:40:20;;;;;;;6.07;3.97;;;15.80;64.90;;;;;;5072797;28;20440;-65
2022/07/17 00:42:48;;;;;;;6.47;4.60;;;15.60;65.20;;;;;;5054298;28;20448;-65
2022/07/17 00:45:16;;;;;;;5.80;4.63;;;15.60;65.40;;;;;;5054966;28;20924;-65
2022/07/17 00:47:57;;;;;;;5.47;4.97;;;15.50;65.60;;;;;;5074208;28;20486;-65
2022/07/17 00:50:25;;;;;;;7.70;5.67;;;15.40;66.10;;;;;;5071922;28;20436;-66
2022/07/17 00:52:52;;;;;;;7.30;5.40;;;15.40;66.10;;;;;;5054037;28;20827;-66
2022/07/17 00:55:20;;;;;;;5.20;4.20;;;15.40;66.50;;;;;;5054684;28;20485;-65
2022/07/17 00:57:49;;;;;;;7.83;5.60;;;15.40;66.60;;;;;;5073169;28;20448;-66
2022/07/17 01:00:17;;;;;;;5.80;4.87;;;15.40;66.70;;;;;;5072881;28;20489;-65
2022/07/17 01:02:48;;;;;;;6.67;4.60;;;15.30;67.20;;;;;;5053658;28;20492;-65
2022/07/17 01:05:17;;;;;;;6.17;4.70;;;15.20;67.20;;;;;;5065629;28;20580;-65
2022/07/17 01:07:44;;;;;;;9.60;5.07;;;15.20;67.90;;;;;;5073885;28;20448;-65
2022/07/17 01:10:13;;;;;;;6.20;4.40;;;15.20;68.40;;;;;;5058092;28;20437;-65
2022/07/17 01:12:41;;;;;;;6.33;4.37;;;15.20;68.30;;;;;;5053713;28;20445;-65
2022/07/17 01:15:10;;;;;;;6.17;3.90;;;15.10;68.40;;;;;;5063231;28;20556;-65
2022/07/17 01:17:38;;;;;;;6.50;4.10;;;15.10;69.10;;;;;;5053615;28;20441;-66
2022/07/17 01:20:08;;;;;;;6.10;4.30;;;15.10;69.00;;;;;;5066076;28;20514;-65
2022/07/17 01:22:43;;;;;;;6.07;5.50;;;15.10;69.20;;;;;;5073551;28;20443;-65
2022/07/17 01:25:10;;;;;;;9.30;8.00;;;15.00;69.10;;;;;;5062300;28;20471;-65
2022/07/17 01:27:38;;;;;;;11.07;9.93;;;15.00;68.90;;;;;;5073166;28;20443;-66
2022/07/17 01:30:06;;;;;;;11.23;9.80;;;15.00;69.00;;;;;;5061167;28;20997;-65
2022/07/17 01:32:34;;;;;;;10.10;8.50;;;15.00;69.10;;;;;;5053385;28;20977;-65
2022/07/17 01:35:02;;;;;;;12.40;7.87;;;14.90;69.60;;;;;;5060836;28;20521;-65
2022/07/17 01:37:29;;;;;;;8.37;7.57;;;14.90;69.80;;;;;;5053145;28;20433;-66
2022/07/17 01:39:58;;;;;;;7.90;5.60;;;14.90;70.10;;;;;;5062427;28;20447;-65
2022/07/17 01:42:27;;;;;;;6.70;6.00;;;14.90;70.20;;;;;;5073090;28;20443;-65
2022/07/17 01:44:55;;;;;;;8.70;6.40;;;14.90;70.00;;;;;;5066899;28;20425;-65
2022/07/17 01:47:23;;;;;;;11.10;7.67;;;14.90;70.30;;;;;;5065710;28;20910;-65
2022/07/17 01:49:52;;;;;;;9.23;6.93;;;14.80;70.70;;;;;;5072861;28;20978;-65
2022/07/17 01:52:20;;;;;;;9.00;5.67;;;14.80;70.40;;;;;;5066255;28;20445;-65
2022/07/17 01:54:47;;;;;;;8.00;5.60;;;14.80;70.60;;;;;;5056131;28;20436;-65
2022/07/17 01:57:17;;;;;;;8.63;5.87;;;14.70;70.80;;;;;;5072689;28;20459;-65
2022/07/17 01:59:44;;;;;;;6.40;5.20;;;14.70;70.70;;;;;;5069631;28;20424;-65
2022/07/17 02:02:13;;;;;;;9.87;7.87;;;14.70;70.80;;;;;;5052460;28;20963;-65
2022/07/17 02:04:42;;;;;;;10.77;6.90;;;14.80;70.80;;;;;;5054771;28;20633;-65
2022/07/17 02:07:10;;;;;;;13.43;8.23;;;14.80;70.80;;;;;;5072623;28;21055;-65
2022/07/17 02:09:37;;;;;;;7.97;6.43;;;14.80;71.20;;;;;;5054948;28;20505;-65
2022/07/17 02:12:05;;;;;;;8.57;6.83;;;14.70;71.20;;;;;;5052623;28;20895;-65
2022/07/17 02:14:35;;;;;;;8.37;6.90;;;14.70;71.50;;;;;;5066171;28;20827;-66
2022/07/17 02:17:03;;;;;;;8.80;6.20;;;14.70;71.60;;;;;;5052506;28;20437;-65
2022/07/17 02:19:30;;;;;;;7.60;6.30;;;14.70;71.70;;;;;;5067302;28;20805;-65
2022/07/17 02:21:58;;;;;;;6.60;5.40;;;14.70;71.60;;;;;;5065048;28;20430;-65
2022/07/17 02:24:25;;;;;;;7.00;5.50;;;14.70;71.20;;;;;;5052144;28;20468;-66
2022/07/17 02:26:52;;;;;;;6.40;5.43;;;14.70;71.30;;;;;;5052122;28;20480;-65
2022/07/17 02:29:19;;;;;;;6.87;5.20;;;14.60;72.10;;;;;;5052515;28;20453;-65
2022/07/17 02:31:48;;;;;;;8.10;6.40;;;14.60;71.80;;;;;;5070941;28;20501;-65
2022/07/17 02:34:19;;;;;;;7.67;5.27;;;14.50;72.20;;;;;;5072312;28;20459;-65
2022/07/17 02:36:47;;;;;;;5.60;5.00;;;14.30;73.20;;;;;;5051475;28;20448;-65
2022/07/17 02:39:14;;;;;;;6.87;5.20;;;14.30;73.70;;;;;;5052424;28;20946;-65
2022/07/17 02:41:41;;;;;;;5.57;4.97;;;14.30;73.90;;;;;;5069417;28;20822;-65
2022/07/17 02:44:08;;;;;;;6.10;4.50;;;14.20;74.60;;;;;;5071953;28;20447;-65
2022/07/17 02:46:35;;;;;;;7.17;5.60;;;14.10;74.50;;;;;;5055319;28;20483;-65
2022/07/17 02:49:04;;;;;;;7.63;5.67;;;14.10;74.30;;;;;;5052123;28;21000;-65
2022/07/17 02:51:31;;;;;;;12.80;8.60;;;14.00;74.60;;;;;;5067449;28;20926;-65
2022/07/17 02:53:58;;;;;;;16.93;10.50;;;13.90;75.50;;;;;;5072184;28;20437;-66
2022/07/17 02:56:26;;;;;;;10.10;8.40;;;13.80;75.80;;;;;;5057200;28;20433;-65
2022/07/17 02:58:53;;;;;;;8.97;6.90;;;13.90;75.70;;;;;;5052313;28;20440;-65
2022/07/17 03:01:20;;;;;;;9.90;6.70;;;13.80;75.90;;;;;;5064208;28;20497;-65
2022/07/17 03:03:47;;;;;;;7.23;6.10;;;13.90;76.00;;;;;;5071822;28;20467;-65
2022/07/17 03:06:15;;;;;;;7.40;5.17;;;13.80;76.00;;;;;;5070237;28;20510;-65
2022/07/17 03:08:43;;;;;;;14.03;5.57;;;13.90;76.20;;;;;;5072168;28;20443;-65
2022/07/17 03:11:10;;;;;;;6.00;4.77;;;13.90;76.10;;;;;;5070310;28;20440;-65
2022/07/17 03:13:37;;;;;;;6.60;4.37;;;13.90;76.40;;;;;;5071982;28;20436;-65
2022/07/17 03:16:04;;;;;;;6.53;4.85;;;13.90;76.30;;;;;;5053860;28;20445;-65
2022/07/17 03:18:31;;;;;;;5.90;4.97;;;13.80;76.90;;;;;;5052040;28;20259;-65
2022/07/17 03:20:59;;;;;;;5.00;4.13;;;13.80;76.80;;;;;;5067973;28;20436;-66
2022/07/17 03:23:27;;;;;;;9.50;4.57;;;13.90;76.70;;;;;;5072048;28;20435;-65
2022/07/17 03:25:54;;;;;;;5.10;4.43;;;13.80;76.60;;;;;;5056010;28;21009;-65
2022/07/17 03:28:22;;;;;;;9.07;5.13;;;13.80;76.50;;;;;;5052343;28;20459;-65
2022/07/17 03:30:49;;;;;;;7.03;5.10;;;13.80;76.30;;;;;;5066014;28;20848;-65
2022/07/17 03:33:16;;;;;;;6.10;5.50;;;13.80;76.30;;;;;;5072004;28;20448;-65
2022/07/17 03:35:43;;;;;;;8.00;5.77;;;13.80;75.90;;;;;;5058243;28;20441;-65
2022/07/17 03:38:10;;;;;;;6.10;5.40;;;13.90;76.00;;;;;;5051874;28;20796;-65
2022/07/17 03:40:39;;;;;;;8.07;6.67;;;13.90;75.90;;;;;;5063928;28;20440;-65
2022/07/17 03:43:06;;;;;;;8.60;6.50;;;13.90;75.80;;;;;;5071744;28;20436;-65
2022/07/17 03:45:33;;;;;;;9.63;6.27;;;13.90;75.80;;;;;;5059804;28;20440;-65
2022/07/17 03:48:00;;;;;;;8.97;5.60;;;13.90;76.40;;;;;;5053610;28;20440;-67
2022/07/17 03:50:27;;;;;;;8.10;5.47;;;13.80;76.60;;;;;;5065862;28;20447;-65
2022/07/17 03:52:54;;;;;;;7.23;5.07;;;13.80;76.60;;;;;;5075543;28;20447;-65
2022/07/17 03:55:21;;;;;;;8.13;5.80;;;13.80;76.20;;;;;;5065132;28;20498;-65
2022/07/17 03:57:50;;;;;;;7.00;4.70;;;13.80;76.30;;;;;;5055332;28;20445;-65
2022/07/17 04:00:17;;;;;;;10.30;5.83;;;13.80;76.30;;;;;;5072744;28;20451;-65
2022/07/17 04:02:45;;;;;;;8.90;5.43;;;13.80;76.50;;;;;;5075048;28;20472;-65
2022/07/17 04:05:12;;;;;;;8.40;5.50;;;13.80;76.70;;;;;;5061212;28;20440;-65
2022/07/17 04:07:41;;;;;;;9.77;6.07;;;13.70;76.80;;;;;;5075284;28;20505;-65
2022/07/17 04:10:09;;;;;;;7.00;5.20;;;13.80;77.10;;;;;;5073651;28;20437;-65
2022/07/17 04:12:37;;;;;;;8.10;6.77;;;13.80;77.80;;;;;;5075050;28;20951;-65
2022/07/17 04:15:07;;;;;;;11.33;6.53;;;13.80;78.00;;;;;;5059373;28;20441;-65
2022/07/17 04:17:34;;;;;;;7.33;5.53;;;13.80;78.30;;;;;;5074982;28;20526;-65
2022/07/17 04:20:02;;;;;;;6.53;5.22;;;13.90;78.00;;;;;;5059813;28;20962;-68
2022/07/17 04:22:29;;;;;;;7.33;5.70;;;13.80;78.40;;;;;;5055425;28;20193;-65
2022/07/17 04:24:56;;;;;;;7.73;4.80;;;13.80;79.10;;;;;;5068267;28;20440;-65
2022/07/17 04:27:23;;;;;;;9.17;5.97;;;13.80;79.20;;;;;;5055060;28;20480;-65
2022/07/17 04:29:50;;;;;;;5.73;5.00;;;13.80;79.40;;;;;;5066752;28;20443;-65
2022/07/17 04:32:19;;;;;;;6.27;5.10;;;13.90;79.20;;;;;;5074892;28;20458;-65
2022/07/17 04:34:46;;;;;;;6.17;4.90;;;13.90;79.30;;;;;;5063137;28;20441;-65
2022/07/17 04:37:14;;;;;;;6.77;4.60;;;14.00;79.00;;;;;;5071711;28;20436;-65
2022/07/17 04:39:41;;;;;;;5.60;4.60;;;14.00;79.20;;;;;;5069785;28;20800;-65
2022/07/17 04:42:08;;;;;;;5.93;4.47;;;14.00;80.10;;;;;;5074755;28;20436;-65
2022/07/17 04:44:36;;;;;;;6.60;5.90;;;14.10;80.50;;;;;;5054733;28;21033;-65
2022/07/17 04:47:03;;;;;;;8.30;5.80;;;14.10;81.20;;;;;;5054592;28;20484;-65
2022/07/17 04:49:32;;;;;;;7.27;5.57;;;14.20;81.80;;;;;;5072554;28;20440;-65
2022/07/17 04:51:59;;;;;;;12.70;8.23;;;14.30;82.40;;;;;;5074485;28;20918;-65
2022/07/17 04:54:26;;;;;;;10.63;6.97;;;14.40;82.60;;;;;;5061494;28;20447;-68
2022/07/17 04:56:53;;;;;;;9.70;6.90;;;14.50;82.20;;;;;;5074370;28;20938;-65
2022/07/17 04:59:20;;;;;;;10.03;6.43;;;14.60;81.70;;;;;;5056816;28;20437;-65
2022/07/17 05:01:47;;;;;;;7.50;5.80;;;14.70;81.80;;;;;;5054210;28;20498;-65
2022/07/17 05:04:15;;;;;;;10.03;6.00;;;14.80;81.40;;;;;;5065497;28;20444;-65
2022/07/17 05:06:43;;;;;;;6.40;5.63;;;14.90;81.80;;;;;;5057064;28;20475;-65
2022/07/17 05:09:10;;;;;;;5.90;5.10;;;15.00;82.20;;;;;;5074251;28;20440;-65
2022/07/17 05:11:37;;;;;;;5.33;4.80;;;15.00;80.80;;;;;;5071438;28;20432;-65
2022/07/17 05:14:05;;;;;;;7.67;6.30;;;15.00;79.40;;;;;;5055004;28;20453;-65
2022/07/17 05:16:32;;;;;;;8.27;6.50;;;15.00;79.30;;;;;;5074031;28;20447;-65
2022/07/17 05:18:59;;;;;;;10.33;6.10;;;15.10;79.80;;;;;;5073380;28;20463;-65
2022/07/17 05:21:26;;;;;;;11.20;6.07;;;15.30;80.00;;;;;;5053556;28;20448;-65
2022/07/17 05:23:55;;;;;;;6.73;5.80;;;15.40;79.70;;;;;;5053984;28;20437;-70
2022/07/17 05:26:22;;;;;;;5.23;4.70;;;15.50;80.00;;;;;;5073602;28;20996;-65
2022/07/17 05:28:49;;;;;;;6.03;5.20;;;15.60;79.50;;;;;;5073759;28;20922;-65
2022/07/17 05:31:17;;;;;;;5.73;4.70;;;15.70;77.10;;;;;;5054585;28;20437;-65
2022/07/17 05:33:44;;;;;;;6.33;4.73;;;15.70;77.10;;;;;;5053618;28;20864;-65
2022/07/17 05:36:12;;;;;;;9.20;6.17;;;15.80;77.90;;;;;;5071621;28;20455;-66
2022/07/17 05:38:39;;;;;;;10.03;7.43;;;15.80;77.10;;;;;;5073812;28;20440;-65
2022/07/17 05:41:07;;;;;;;12.03;6.03;;;15.90;77.40;;;;;;5068822;28;20475;-66
2022/07/17 05:43:35;;;;;;;6.93;5.30;;;16.00;76.50;;;;;;5071768;28;20526;-65
2022/07/17 05:46:02;;;;;;;7.93;4.80;;;16.10;76.10;;;;;;5069706;28;20446;-67
2022/07/17 05:48:32;;;;;;;6.80;5.20;;;16.20;75.80;;;;;;5067267;28;20851;-65
2022/07/17 05:50:59;;;;;;;6.50;5.10;;;16.30;75.20;;;;;;5071884;28;20451;-65
2022/07/17 05:53:26;;;;;;;5.60;4.07;;;16.40;75.40;;;;;;5070798;28;20494;-66
2022/07/17 05:55:57;;;;;;;6.43;4.13;;;16.50;74.50;;;;;;5070462;28;20440;-68
2022/07/17 05:58:25;;;;;;;5.77;4.17;;;16.50;72.40;;;;;;5067389;28;20436;-65
2022/07/17 06:00:53;;;;;;;7.80;5.33;;;16.60;73.60;;;;;;5071935;28;20448;-66
2022/07/17 06:03:20;;;;;;;7.77;5.33;;;16.70;75.00;;;;;;5070422;28;20468;-67
2022/07/17 06:05:47;;;;;;;6.23;4.27;;;16.90;75.60;;;;;;5070347;28;20463;-66
2022/07/17 06:08:14;;;;;;;5.10;4.03;;;16.90;74.10;;;;;;5070968;28;21005;-66
2022/07/17 06:10:41;;;;;;;6.43;4.67;;;17.00;72.60;;;;;;5071076;28;20444;-65
2022/07/17 06:13:09;;;;;;;4.93;3.90;;;17.10;73.40;;;;;;5070516;28;20489;-66
2022/07/17 06:15:37;;;;;;;5.43;4.20;;;17.20;72.80;;;;;;5070448;28;20432;-65
2022/07/17 06:18:05;;;;;;;4.60;3.33;;;17.30;72.20;;;;;;5070805;28;20439;-65
2022/07/17 06:20:32;;;;;;;6.17;4.57;;;17.40;73.30;;;;;;5071081;28;20439;-65
2022/07/17 06:22:59;;;;;;;5.50;4.40;;;17.60;73.50;;;;;;5069926;28;20797;-66
2022/07/17 06:25:26;;;;;;;7.27;5.03;;;17.60;72.80;;;;;;5070906;28;20438;-65
2022/07/17 06:27:54;;;;;;;6.90;4.40;;;17.70;72.00;;;;;;5070534;28;20475;-65
2022/07/17 06:30:21;;;;;;;6.00;4.60;;;17.90;71.60;;;;;;5071463;28;20527;-65
2022/07/17 06:32:50;;;;;;;6.20;4.97;;;18.00;71.20;;;;;;5070075;28;20447;-66
2022/07/17 06:35:17;;;;;;;6.93;4.20;;;18.00;71.40;;;;;;5070278;28;20523;-66
2022/07/17 06:37:44;;;;;;;5.53;3.30;;;18.10;72.80;;;;;;5070088;28;20435;-65
2022/07/17 06:40:11;;;;;;;4.27;3.50;;;18.30;72.70;;;;;;5069725;28;20443;-73
2022/07/17 06:42:39;;;;;;;8.53;5.20;;;18.40;73.20;;;;;;5063126;28;20771;-66
2022/07/17 06:45:07;;;;;;;4.90;4.13;;;18.50;73.00;;;;;;5062248;28;20435;-66
2022/07/17 06:47:34;;;;;;;5.53;4.50;;;18.60;72.40;;;;;;5066080;28;20541;-68
2022/07/17 06:50:03;;;;;;;7.07;4.80;;;18.70;71.80;;;;;;5069445;28;20444;-67
2022/07/17 06:52:31;;;;;;;4.17;3.77;;;18.80;71.80;;;;;;5066971;28;20435;-66
2022/07/17 06:54:58;;;;;;;8.10;3.70;;;18.90;71.00;;;;;;5069956;28;20458;-65
2022/07/17 06:57:25;;;;;;;7.73;4.30;;;19.00;71.00;;;;;;5069326;28;20468;-69
2022/07/17 06:59:52;;;;;;;4.60;3.50;;;19.10;70.00;;;;;;5069598;28;20796;-66
2022/07/17 07:02:19;;;;;;;4.90;3.53;;;19.20;70.00;;;;;;5068130;28;20464;-66
2022/07/17 07:04:46;;;;;;;5.33;3.70;;;19.30;69.30;;;;;;5069795;28;20470;-65
2022/07/17 07:07:15;;;;;;;5.73;3.40;;;19.40;68.90;;;;;;5068296;28;20479;-66
2022/07/17 07:09:42;;;;;;;4.10;3.53;;;19.50;68.50;;;;;;5069024;28;20444;-67
2022/07/17 07:12:11;;;;;;;7.50;3.83;;;19.60;68.90;;;;;;5064986;28;20841;-66
2022/07/17 07:14:41;;;;;;;7.90;4.37;;;19.70;68.40;;;;;;5070123;28;20432;-65
2022/07/17 07:17:08;;;;;;;8.80;4.77;;;19.80;68.10;;;;;;5069323;28;20432;-65
2022/07/17 07:19:35;;;;;;;5.10;3.17;;;19.90;67.90;;;;;;5068937;28;20439;-68
2022/07/17 07:22:02;;;;;;;7.53;3.43;;;20.00;67.30;;;;;;5068786;28;20815;-65
2022/07/17 07:24:30;;;;;;;5.70;3.30;;;20.10;66.90;;;;;;5073383;28;20435;-68
2022/07/17 07:26:58;;;;;;;4.10;3.60;;;20.30;67.20;;;;;;5072767;28;20533;-65
2022/07/17 07:29:25;;;;;;;5.57;3.50;;;20.30;67.10;;;;;;5073054;28;20523;-66
2022/07/17 07:31:52;;;;;;;10.80;3.50;;;20.50;67.50;;;;;;5072210;28;20442;-65
2022/07/17 07:34:19;;;;;;;4.90;3.77;;;20.60;67.00;;;;;;5072628;28;20470;-65
2022/07/17 07:36:47;;;;;;;7.83;3.07;;;20.70;66.20;;;;;;5072048;28;20435;-65
2022/07/17 07:39:14;;;;;;;4.77;3.47;;;20.80;65.90;;;;;;5072443;28;20442;-66
2022/07/17 07:41:43;;;;;;;6.73;3.37;;;20.90;63.60;;;;;;5070347;28;20535;-66
2022/07/17 07:44:10;;;;;;;5.47;3.67;;;20.90;62.30;;;;;;5073506;28;20457;-65
2022/07/17 07:46:37;;;;;;;3.80;2.83;;;21.10;63.00;;;;;;5071810;28;20444;-65
2022/07/17 07:49:04;;;;;;;4.83;3.50;;;21.20;63.50;;;;;;5072091;28;20440;-66
2022/07/17 07:51:32;;;;;;;4.87;3.00;;;21.30;63.70;;;;;;5072947;28;20440;-68
2022/07/17 07:54:03;;;;;;;3.73;3.00;;;21.50;61.40;;;;;;5072954;28;20436;-65
2022/07/17 07:56:31;;;;;;;6.53;3.50;;;21.60;61.30;;;;;;5073237;28;20436;-66
2022/07/17 07:59:00;;;;;;;7.37;4.17;;;21.80;61.60;;;;;;5073029;28;20478;-72
2022/07/17 08:01:27;;;;;;;3.70;2.83;;;21.90;61.50;;;;;;5073953;28;20895;-65
2022/07/17 08:03:54;;;;;;;6.53;2.90;;;22.00;60.60;;;;;;5073165;28;20472;-65
2022/07/17 08:06:22;;;;;;;7.33;2.80;;;22.20;62.40;;;;;;5073175;28;20440;-65
2022/07/17 08:08:49;;;;;;;5.80;3.10;;;22.30;59.90;;;;;;5072608;28;20484;-65
2022/07/17 08:11:16;;;;;;;4.90;3.07;;;22.40;59.80;;;;;;5073504;28;20471;-65
2022/07/17 08:13:43;;;;;;;4.80;3.17;;;22.60;59.00;;;;;;5072757;28;20491;-66
2022/07/17 08:16:12;;;;;;;7.70;2.47;;;22.70;58.40;;;;;;5067449;28;20522;-66
2022/07/17 08:18:39;;;;;;;4.87;2.70;;;22.90;57.90;;;;;;5071920;28;20513;-66
2022/07/17 08:21:06;;;;;;;2.87;2.03;;;23.10;58.30;;;;;;5073809;28;20469;-69
2022/07/17 08:23:33;;;;;;;3.60;2.13;;;23.20;52.80;;;;;;5070100;28;20443;-66
2022/07/17 08:26:01;;;;;;;4.40;2.57;;;23.30;50.40;;;;;;5071904;28;20841;-66
2022/07/17 08:28:28;;;;;;;3.83;2.20;;;23.40;51.50;;;;;;5072412;28;20500;-66
2022/07/17 08:30:55;;;;;;;3.53;2.17;;;23.50;50.40;;;;;;5072864;28;20439;-71
2022/07/17 08:33:24;;;;;;;3.60;1.77;;;23.60;51.20;;;;;;5072600;28;20432;-66
2022/07/17 08:35:51;;;;;;;4.23;1.90;;;23.70;50.00;;;;;;5073160;28;20443;-65
2022/07/17 08:38:18;;;;;;;7.27;2.03;;;23.90;48.00;;;;;;5071914;28;20455;-66
2022/07/17 08:40:48;;;;;;;3.43;2.00;;;24.00;50.10;;;;;;5073096;28;20436;-65
2022/07/17 08:43:16;;;;;;;3.73;1.50;;;24.10;50.10;;;;;;5072363;28;20869;-66
2022/07/17 08:45:45;;;;;;;4.17;1.97;;;24.20;48.70;;;;;;5072978;28;20476;-65
2022/07/17 08:48:15;;;;;;;5.37;2.70;;;24.40;48.00;;;;;;5070091;28;20490;-66
2022/07/17 08:50:44;;;;;;;4.60;1.83;;;24.30;46.90;;;;;;5072530;28;20450;-67
2022/07/17 08:53:12;;;;;;;4.97;2.60;;;24.50;48.40;;;;;;5072695;28;20436;-66
2022/07/17 08:55:39;;;;;;;3.37;1.93;;;24.60;47.60;;;;;;5072595;28;20439;-66
2022/07/17 08:58:06;;;;;;;3.70;1.90;;;24.70;46.60;;;;;;5072742;28;20497;-66
2022/07/17 09:00:34;;;;;;;5.53;1.93;;;24.80;46.40;;;;;;5068835;28;20446;-66
2022/07/17 09:03:04;;;;;;;5.50;2.20;;;24.90;47.90;;;;;;5072332;28;21772;-66
2022/07/17 09:05:32;;;;;;;6.47;2.20;;;25.00;46.50;;;;;;5072742;28;20917;-66
2022/07/17 09:08:02;;;;;;;3.23;1.90;;;25.10;46.70;;;;;;5071040;28;20558;-67
2022/07/17 09:10:37;;;;;;;3.30;2.10;;;25.30;47.30;;;;;;5071443;28;20440;-66
2022/07/17 09:13:19;;;;;;;5.40;2.07;;;25.30;44.60;;;;;;5068046;28;20436;-67
2022/07/17 09:15:47;;;;;;;4.67;1.97;;;25.40;44.60;;;;;;5066013;28;20442;-65
2022/07/17 09:18:15;;;;;;;3.30;1.80;;;25.50;46.10;;;;;;5071301;28;20865;-67
2022/07/17 09:20:58;;;;;;;4.77;2.20;;;25.60;46.70;;;;;;5064422;28;20421;-66
2022/07/17 09:23:30;;;;;;;6.80;2.23;;;25.70;46.60;;;;;;5070975;28;20440;-66
2022/07/17 09:25:58;;;;;;;3.10;1.63;;;25.90;45.10;;;;;;5066902;28;20945;-67
2022/07/17 09:28:25;;;;;;;6.23;1.90;;;26.00;45.60;;;;;;5069523;28;20491;-67
2022/07/17 09:30:56;;;;;;;2.53;1.60;;;26.10;44.90;;;;;;5063731;28;21052;-65
2022/07/17 09:33:27;;;;;;;3.40;1.90;;;26.20;43.30;;;;;;5066117;28;20448;-65
2022/07/17 09:35:58;;;;;;;4.33;2.33;;;26.20;42.20;;;;;;5071135;28;20535;-65
2022/07/17 09:38:34;;;;;;;8.10;2.03;;;26.40;43.60;;;;;;5071786;28;20521;-66
2022/07/17 09:41:16;;;;;;;3.80;1.90;;;26.40;43.30;;;;;;5071633;28;20507;-65
2022/07/17 09:43:47;;;;;;;4.20;1.97;;;26.50;42.30;;;;;;5064943;28;20486;-65
2022/07/17 09:46:18;;;;;;;4.23;2.60;;;26.50;42.40;;;;;;5068709;28;20444;-66
2022/07/17 09:48:50;;;;;;;3.03;1.60;;;26.60;42.70;;;;;;5071548;28;20519;-66
2022/07/17 09:51:19;;;;;;;3.67;2.03;;;26.70;41.00;;;;;;5067658;28;20444;-65
2022/07/17 09:53:51;;;;;;;3.83;1.90;;;26.80;42.40;;;;;;5071570;28;20855;-65
2022/07/17 09:56:20;;;;;;;5.27;2.00;;;26.90;42.30;;;;;;5068212;28;20513;-66
2022/07/17 09:58:50;;;;;;;4.00;1.87;;;27.00;41.40;;;;;;5066840;28;20497;-65
2022/07/17 10:01:18;;;;;;;5.03;2.00;;;27.20;41.70;;;;;;5068881;28;20942;-65
2022/07/17 10:03:48;;;;;;;2.70;1.60;;;27.30;41.30;;;;;;5071610;28;20495;-67
2022/07/17 10:06:16;;;;;;;7.70;2.13;;;27.40;40.50;;;;;;5063882;28;20527;-67
2022/07/17 10:08:44;;;;;;;4.30;2.80;;;27.50;39.20;;;;;;5071017;28;20545;-67
2022/07/17 10:11:15;;;;;;;3.50;1.87;;;27.50;41.10;;;;;;5071259;28;20439;-66
2022/07/17 10:13:45;;;;;;;3.20;2.10;;;27.70;39.70;;;;;;5067400;28;20758;-66
2022/07/17 10:16:13;;;;;;;3.30;2.10;;;27.70;39.60;;;;;;5070198;28;20549;-67
2022/07/17 10:18:42;;;;;;;5.10;2.07;;;27.80;39.40;;;;;;5070976;28;20481;-66
2022/07/17 10:21:14;;;;;;;6.13;1.93;;;27.90;38.30;;;;;;5070143;28;20471;-65
2022/07/17 10:23:42;;;;;;;4.10;1.90;;;27.90;38.80;;;;;;5071692;28;20447;-65
2022/07/17 10:26:11;;;;;;;2.90;1.67;;;28.00;37.60;;;;;;5066783;28;20505;-67
2022/07/17 10:28:45;;;;;;;3.17;1.67;;;28.10;38.50;;;;;;5070917;28;20545;-66
2022/07/17 10:31:24;;;;;;;2.40;1.30;;;28.20;38.40;;;;;;5070556;28;20493;-66
2022/07/17 10:33:57;;;;;;;3.70;2.30;;;28.30;39.50;;;;;;5067805;28;20455;-65
2022/07/17 10:36:34;;;;;;;3.87;2.03;;;28.40;36.90;;;;;;5071480;28;20447;-65
2022/07/17 10:39:12;;;;;;;4.20;2.53;;;28.30;37.10;;;;;;5067577;28;20498;-66
2022/07/17 10:41:39;;;;;;;4.93;2.10;;;28.30;36.40;;;;;;5070612;28;20431;-66
2022/07/17 10:44:08;;;;;;;3.13;1.93;;;28.30;37.00;;;;;;5070922;28;20440;-66
2022/07/17 10:46:35;;;;;;;7.33;1.93;;;28.40;38.50;;;;;;5066750;28;20444;-65
2022/07/17 10:49:10;;;;;;;4.07;2.10;;;28.50;38.60;;;;;;5068201;28;20571;-66
2022/07/17 10:51:40;;;;;;;4.23;1.80;;;28.50;35.60;;;;;;5069552;28;20482;-67
2022/07/17 10:54:07;;;;;;;3.50;2.03;;;28.50;36.00;;;;;;5064213;28;20467;-66
2022/07/17 10:56:36;;;;;;;3.87;1.93;;;28.60;36.00;;;;;;5068598;28;20440;-65
2022/07/17 10:59:04;;;;;;;3.10;2.03;;;28.60;35.40;;;;;;5074006;28;20460;-66
2022/07/17 11:01:32;;;;;;;3.70;2.00;;;28.60;35.90;;;;;;5072125;28;20490;-65
2022/07/17 11:04:01;;;;;;;4.23;1.87;;;28.70;35.70;;;;;;5073299;28;20522;-65
2022/07/17 11:06:31;;;;;;;3.40;1.83;;;28.70;36.10;;;;;;5069142;28;20460;-66
2022/07/17 11:09:00;;;;;;;3.43;1.80;;;28.60;34.00;;;;;;5071396;28;20570;-65
2022/07/17 11:11:37;;;;;;;5.00;2.30;;;28.60;35.20;;;;;;5072205;28;20433;-65
2022/07/17 11:14:12;;;;;;;3.53;1.87;;;28.70;34.30;;;;;;5071983;28;20522;-66
2022/07/17 11:16:46;;;;;;;4.40;2.07;;;28.80;35.00;;;;;;5070412;28;20436;-65
2022/07/17 11:19:20;;;;;;;3.13;1.87;;;28.90;33.20;;;;;;5068036;28;20475;-67
2022/07/17 11:21:48;;;;;;;3.10;1.97;;;28.80;34.50;;;;;;5070970;28;20856;-66
2022/07/17 11:24:15;;;;;;;4.10;2.27;;;28.80;33.70;;;;;;5073680;28;20508;-65
2022/07/17 11:26:43;;;;;;;2.50;1.67;;;28.80;34.70;;;;;;5070980;28;20471;-65
2022/07/17 11:29:10;;;;;;;3.10;2.03;;;28.80;33.00;;;;;;5071695;28;20568;-65
2022/07/17 11:31:37;;;;;;;4.27;2.23;;;28.80;33.50;;;;;;5073541;28;20543;-65
2022/07/17 11:34:08;;;;;;;2.77;2.00;;;28.80;34.80;;;;;;5071969;28;20436;-65
2022/07/17 11:36:37;;;;;;;3.77;2.27;;;28.80;35.00;;;;;;5073450;28;20482;-65
2022/07/17 11:39:10;;;;;;;2.97;1.87;;;28.90;33.30;;;;;;5073249;28;20467;-66
2022/07/17 11:41:40;;;;;;;4.13;2.20;;;28.90;31.40;;;;;;5073337;28;20468;-65
2022/07/17 11:44:10;;;;;;;3.00;2.07;;;28.90;31.50;;;;;;5073095;28;20933;-66
2022/07/17 11:46:40;;;;;;;4.17;2.30;;;28.90;32.50;;;;;;5070997;28;20444;-65
2022/07/17 11:49:09;;;;;;;3.20;2.10;;;29.00;33.90;;;;;;5071008;28;20511;-65
2022/07/17 11:51:40;;;;;;;4.27;1.97;;;29.00;33.40;;;;;;5071039;28;20463;-65
2022/07/17 11:54:10;;;;;;;3.30;2.33;;;28.90;33.50;;;;;;5069975;28;20468;-69
2022/07/17 11:56:38;;;;;;;3.80;2.07;;;28.90;32.20;;;;;;5069984;28;20952;-65
2022/07/17 11:59:05;;;;;;;3.33;2.10;;;28.90;30.20;;;;;;5072357;28;20440;-66
2022/07/17 12:01:41;;;;;;;3.70;2.07;;;28.80;32.20;;;;;;5071581;28;20776;-65
2022/07/17 12:04:11;;;;;;;6.53;2.00;;;28.80;31.10;;;;;;5072074;28;20521;-65
2022/07/17 12:06:38;;;;;;;4.70;2.40;;;28.80;32.30;;;;;;5070396;28;20858;-65
2022/07/17 12:09:05;;;;;;;2.73;1.80;;;28.80;33.20;;;;;;5072186;28;20488;-65
2022/07/17 12:11:32;;;;;;;2.97;1.77;;;28.90;33.30;;;;;;5073579;28;20498;-66
2022/07/17 12:14:06;;;;;;;4.40;2.03;;;28.90;32.10;;;;;;5072442;28;20527;-69
2022/07/17 12:16:36;;;;;;;3.70;2.17;;;29.00;31.20;;;;;;5073898;28;20446;-65
2022/07/17 12:19:08;;;;;;;5.47;2.00;;;29.00;31.30;;;;;;5072136;28;20450;-65
2022/07/17 12:21:49;;;;;;;2.83;2.00;;;29.10;32.30;;;;;;5072679;28;20428;-65
2022/07/17 12:24:22;;;;;;;3.77;2.47;;;29.10;30.60;;;;;;5073338;28;20494;-66
2022/07/17 12:26:49;;;;;;;4.83;2.37;;;29.10;32.60;;;;;;5066802;28;20433;-65
2022/07/17 12:29:17;;;;;;;2.60;1.87;;;29.20;30.20;;;;;;5073335;28;21037;-65
2022/07/17 12:31:44;;;;;;;3.20;2.10;;;29.20;30.30;;;;;;5073028;28;20443;-66
2022/07/17 12:34:11;;;;;;;3.10;2.10;;;29.20;32.70;;;;;;5072739;28;20446;-66
2022/07/17 12:36:40;;;;;;;3.07;1.93;;;29.20;32.20;;;;;;5072393;28;20432;-67
2022/07/17 12:39:07;;;;;;;3.13;1.93;;;29.30;31.90;;;;;;5070557;28;20549;-66
2022/07/17 12:41:34;;;;;;;2.93;1.70;;;29.30;32.00;;;;;;5072276;28;20476;-66
2022/07/17 12:44:01;;;;;;;3.50;2.17;;;29.30;33.20;;;;;;5071614;28;20447;-66
2022/07/17 12:46:28;;;;;;;3.27;2.03;;;29.30;33.60;;;;;;5063130;28;20519;-68
2022/07/17 12:48:55;;;;;;;3.30;2.00;;;29.30;29.80;;;;;;5068908;28;20498;-66
2022/07/17 12:51:23;;;;;;;4.20;2.20;;;29.30;30.10;;;;;;5071294;28;20490;-66